sensor_id;sensor_type;location;lat;lon;timestamp;temperature;humidity
30628;DHT22;17394;50.890;4.724;2023-05-10T00:00:37;12.50;99.90
30628;DHT22;17394;50.890;4.724;2023-05-10T00:03:03;12.50;99.90
30628;DHT22;17394;50.890;4.724;2023-05-10T00:05:30;12.40;99.90
30628;DHT22;17394;50.890;4.724;2023-05-10T00:07:56;12.40;99.90
30628;DHT22;17394;50.890;4.724;2023-05-10T00:10:22;12.40;99.90
30628;DHT22;17394;50.890;4.724;2023-05-10T00:12:48;12.40;99.90
30628;DHT22;17394;50.890;4.724;2023-05-10T00:15:14;12.50;99.90
30628;DHT22;17394;50.890;4.724;2023-05-10T00:17:41;12.50;99.90
30628;DHT22;17394;50.890;4.724;2023-05-10T00:20:07;12.50;99.90
30628;DHT22;17394;50.890;4.724;2023-05-10T00:22:33;12.40;99.90
30628;DHT22;17394;50.890;4.724;2023-05-10T00:24:59;12.50;99.90
30628;DHT22;17394;50.890;4.724;2023-05-10T00:27:25;12.50;99.90
30628;DHT22;17394;50.890;4.724;2023-05-10T00:29:52;12.50;99.90
30628;DHT22;17394;50.890;4.724;2023-05-10T00:32:18;12.50;99.90
30628;DHT22;17394;50.890;4.724;2023-05-10T00:34:44;12.50;99.90
30628;DHT22;17394;50.890;4.724;2023-05-10T00:37:10;12.50;99.90
30628;DHT22;17394;50.890;4.724;2023-05-10T00:39:36;12.50;99.90
30628;DHT22;17394;50.890;4.724;2023-05-10T00:42:02;12.50;99.90
30628;DHT22;17394;50.890;4.724;2023-05-10T00:44:29;12.50;99.90
30628;DHT22;17394;50.890;4.724;2023-05-10T00:46:56;12.50;99.90
30628;DHT22;17394;50.890;4.724;2023-05-10T00:49:23;12.50;99.90
30628;DHT22;17394;50.890;4.724;2023-05-10T00:51:49;12.50;99.90
30628;DHT22;17394;50.890;4.724;2023-05-10T00:54:16;12.50;99.90
30628;DHT22;17394;50.890;4.724;2023-05-10T00:56:41;12.50;99.90
30628;DHT22;17394;50.890;4.724;2023-05-10T00:59:14;12.50;99.90
30628;DHT22;17394;50.890;4.724;2023-05-10T01:01:40;12.50;99.90
30628;DHT22;17394;50.890;4.724;2023-05-10T01:04:06;12.50;99.90
30628;DHT22;17394;50.890;4.724;2023-05-10T01:06:32;12.50;99.90
30628;DHT22;17394;50.890;4.724;2023-05-10T01:08:59;12.50;99.90
30628;DHT22;17394;50.890;4.724;2023-05-10T01:11:25;12.50;99.90
30628;DHT22;17394;50.890;4.724;2023-05-10T01:13:52;12.50;99.90
30628;DHT22;17394;50.890;4.724;2023-05-10T01:16:21;12.50;99.90
30628;DHT22;17394;50.890;4.724;2023-05-10T01:18:47;12.50;99.90
30628;DHT22;17394;50.890;4.724;2023-05-10T01:23:55;12.50;99.90
30628;DHT22;17394;50.890;4.724;2023-05-10T01:34:16;12.50;99.90
30628;DHT22;17394;50.890;4.724;2023-05-10T01:36:45;12.50;99.90
30628;DHT22;17394;50.890;4.724;2023-05-10T01:39:19;12.50;99.90
30628;DHT22;17394;50.890;4.724;2023-05-10T01:41:55;12.50;99.90
30628;DHT22;17394;50.890;4.724;2023-05-10T01:47:00;12.50;99.90
30628;DHT22;17394;50.890;4.724;2023-05-10T01:49:29;12.50;99.90
30628;DHT22;17394;50.890;4.724;2023-05-10T01:51:59;12.50;99.90
30628;DHT22;17394;50.890;4.724;2023-05-10T01:54:26;12.50;99.90
30628;DHT22;17394;50.890;4.724;2023-05-10T01:57:01;12.50;99.90
30628;DHT22;17394;50.890;4.724;2023-05-10T01:59:30;12.50;99.90
30628;DHT22;17394;50.890;4.724;2023-05-10T02:01:57;12.50;99.90
30628;DHT22;17394;50.890;4.724;2023-05-10T02:04:24;12.50;99.90
30628;DHT22;17394;50.890;4.724;2023-05-10T02:06:50;12.40;99.90
30628;DHT22;17394;50.890;4.724;2023-05-10T02:09:17;12.40;99.90
30628;DHT22;17394;50.890;4.724;2023-05-10T02:11:43;12.40;99.90
30628;DHT22;17394;50.890;4.724;2023-05-10T02:14:09;12.40;99.90
30628;DHT22;17394;50.890;4.724;2023-05-10T02:16:36;12.40;99.90
30628;DHT22;17394;50.890;4.724;2023-05-10T02:19:03;12.40;99.90
30628;DHT22;17394;50.890;4.724;2023-05-10T02:21:29;12.50;99.90
30628;DHT22;17394;50.890;4.724;2023-05-10T02:23:56;12.40;99.90
30628;DHT22;17394;50.890;4.724;2023-05-10T02:26:23;12.50;99.90
30628;DHT22;17394;50.890;4.724;2023-05-10T02:28:50;12.50;99.90
30628;DHT22;17394;50.890;4.724;2023-05-10T02:31:17;12.50;99.90
30628;DHT22;17394;50.890;4.724;2023-05-10T02:33:43;12.50;99.90
30628;DHT22;17394;50.890;4.724;2023-05-10T02:36:10;12.50;99.90
30628;DHT22;17394;50.890;4.724;2023-05-10T02:38:37;12.50;99.90
30628;DHT22;17394;50.890;4.724;2023-05-10T02:41:03;12.50;99.90
30628;DHT22;17394;50.890;4.724;2023-05-10T02:43:31;12.50;99.90
30628;DHT22;17394;50.890;4.724;2023-05-10T02:45:58;12.50;99.90
30628;DHT22;17394;50.890;4.724;2023-05-10T02:48:24;12.50;99.90
30628;DHT22;17394;50.890;4.724;2023-05-10T02:50:50;12.60;99.90
30628;DHT22;17394;50.890;4.724;2023-05-10T02:53:19;12.50;99.90
30628;DHT22;17394;50.890;4.724;2023-05-10T02:55:47;12.50;99.90
30628;DHT22;17394;50.890;4.724;2023-05-10T02:58:14;12.60;99.90
30628;DHT22;17394;50.890;4.724;2023-05-10T03:00:40;12.50;99.90
30628;DHT22;17394;50.890;4.724;2023-05-10T03:03:06;12.60;99.90
30628;DHT22;17394;50.890;4.724;2023-05-10T03:05:33;12.60;99.90
30628;DHT22;17394;50.890;4.724;2023-05-10T03:07:59;12.60;99.90
30628;DHT22;17394;50.890;4.724;2023-05-10T03:10:29;12.60;99.90
30628;DHT22;17394;50.890;4.724;2023-05-10T03:15:37;12.60;99.90
30628;DHT22;17394;50.890;4.724;2023-05-10T03:18:09;12.60;99.90
30628;DHT22;17394;50.890;4.724;2023-05-10T03:20:41;12.60;99.90
30628;DHT22;17394;50.890;4.724;2023-05-10T03:23:11;12.60;99.90
30628;DHT22;17394;50.890;4.724;2023-05-10T03:25:38;12.60;99.90
30628;DHT22;17394;50.890;4.724;2023-05-10T03:28:05;12.60;99.90
30628;DHT22;17394;50.890;4.724;2023-05-10T03:30:31;12.60;99.90
30628;DHT22;17394;50.890;4.724;2023-05-10T03:32:58;12.60;99.90
30628;DHT22;17394;50.890;4.724;2023-05-10T03:35:24;12.60;99.90
30628;DHT22;17394;50.890;4.724;2023-05-10T03:37:50;12.50;99.90
30628;DHT22;17394;50.890;4.724;2023-05-10T03:40:17;12.40;99.90
30628;DHT22;17394;50.890;4.724;2023-05-10T03:42:43;12.30;99.90
30628;DHT22;17394;50.890;4.724;2023-05-10T03:45:10;12.30;99.90
30628;DHT22;17394;50.890;4.724;2023-05-10T03:47:36;12.20;99.90
30628;DHT22;17394;50.890;4.724;2023-05-10T03:50:03;12.20;99.90
30628;DHT22;17394;50.890;4.724;2023-05-10T03:52:29;12.10;99.90
30628;DHT22;17394;50.890;4.724;2023-05-10T03:54:55;12.10;99.90
30628;DHT22;17394;50.890;4.724;2023-05-10T03:57:21;12.00;99.90
30628;DHT22;17394;50.890;4.724;2023-05-10T03:59:47;12.00;99.90
30628;DHT22;17394;50.890;4.724;2023-05-10T04:02:13;12.00;99.90
30628;DHT22;17394;50.890;4.724;2023-05-10T04:04:39;12.00;99.90
30628;DHT22;17394;50.890;4.724;2023-05-10T04:07:06;12.00;99.90
30628;DHT22;17394;50.890;4.724;2023-05-10T04:09:32;12.00;99.90
30628;DHT22;17394;50.890;4.724;2023-05-10T04:11:59;12.00;99.90
30628;DHT22;17394;50.890;4.724;2023-05-10T04:14:27;12.00;99.90
30628;DHT22;17394;50.890;4.724;2023-05-10T04:16:54;12.00;99.90
30628;DHT22;17394;50.890;4.724;2023-05-10T04:19:20;12.00;99.90
30628;DHT22;17394;50.890;4.724;2023-05-10T04:21:47;12.00;99.90
30628;DHT22;17394;50.890;4.724;2023-05-10T04:24:14;11.90;99.90
30628;DHT22;17394;50.890;4.724;2023-05-10T04:26:40;11.90;99.90
30628;DHT22;17394;50.890;4.724;2023-05-10T04:29:06;11.90;99.90
30628;DHT22;17394;50.890;4.724;2023-05-10T04:31:33;11.90;99.90
30628;DHT22;17394;50.890;4.724;2023-05-10T04:33:59;11.90;99.90
30628;DHT22;17394;50.890;4.724;2023-05-10T04:36:26;11.80;99.90
30628;DHT22;17394;50.890;4.724;2023-05-10T04:38:53;11.80;99.90
30628;DHT22;17394;50.890;4.724;2023-05-10T04:41:20;11.80;99.90
30628;DHT22;17394;50.890;4.724;2023-05-10T04:43:46;11.80;99.90
30628;DHT22;17394;50.890;4.724;2023-05-10T04:46:14;11.80;99.90
30628;DHT22;17394;50.890;4.724;2023-05-10T04:48:41;11.80;99.90
30628;DHT22;17394;50.890;4.724;2023-05-10T04:51:07;11.80;99.90
30628;DHT22;17394;50.890;4.724;2023-05-10T04:53:33;11.80;99.90
30628;DHT22;17394;50.890;4.724;2023-05-10T04:56:00;11.80;99.90
30628;DHT22;17394;50.890;4.724;2023-05-10T04:58:27;11.80;99.90
30628;DHT22;17394;50.890;4.724;2023-05-10T05:00:54;11.90;99.90
30628;DHT22;17394;50.890;4.724;2023-05-10T05:03:20;11.90;99.90
30628;DHT22;17394;50.890;4.724;2023-05-10T05:05:46;11.90;99.90
30628;DHT22;17394;50.890;4.724;2023-05-10T05:08:12;11.90;99.90
30628;DHT22;17394;50.890;4.724;2023-05-10T05:10:39;11.90;99.90
30628;DHT22;17394;50.890;4.724;2023-05-10T05:13:06;11.90;99.90
30628;DHT22;17394;50.890;4.724;2023-05-10T05:15:31;11.90;99.90
30628;DHT22;17394;50.890;4.724;2023-05-10T05:17:58;11.90;99.90
30628;DHT22;17394;50.890;4.724;2023-05-10T05:20:24;11.90;99.90
30628;DHT22;17394;50.890;4.724;2023-05-10T05:22:52;12.00;99.90
30628;DHT22;17394;50.890;4.724;2023-05-10T05:25:19;12.00;99.90
30628;DHT22;17394;50.890;4.724;2023-05-10T05:27:45;12.00;99.90
30628;DHT22;17394;50.890;4.724;2023-05-10T05:30:11;12.00;99.90
30628;DHT22;17394;50.890;4.724;2023-05-10T05:32:37;12.10;99.90
30628;DHT22;17394;50.890;4.724;2023-05-10T05:35:03;12.10;99.90
30628;DHT22;17394;50.890;4.724;2023-05-10T05:37:29;12.10;99.90
30628;DHT22;17394;50.890;4.724;2023-05-10T05:39:55;12.10;99.90
30628;DHT22;17394;50.890;4.724;2023-05-10T05:42:22;12.20;99.90
30628;DHT22;17394;50.890;4.724;2023-05-10T05:44:48;12.10;99.90
30628;DHT22;17394;50.890;4.724;2023-05-10T05:47:15;12.10;99.90
30628;DHT22;17394;50.890;4.724;2023-05-10T05:49:41;12.20;99.90
30628;DHT22;17394;50.890;4.724;2023-05-10T05:52:11;12.10;99.90
30628;DHT22;17394;50.890;4.724;2023-05-10T05:54:37;12.20;99.90
30628;DHT22;17394;50.890;4.724;2023-05-10T05:57:04;12.20;99.90
30628;DHT22;17394;50.890;4.724;2023-05-10T05:59:30;12.20;99.90
30628;DHT22;17394;50.890;4.724;2023-05-10T06:01:56;12.20;99.90
30628;DHT22;17394;50.890;4.724;2023-05-10T06:04:22;12.30;99.90
30628;DHT22;17394;50.890;4.724;2023-05-10T06:06:49;12.30;99.90
30628;DHT22;17394;50.890;4.724;2023-05-10T06:09:16;12.40;99.90
30628;DHT22;17394;50.890;4.724;2023-05-10T06:11:42;12.40;99.90
30628;DHT22;17394;50.890;4.724;2023-05-10T06:14:08;12.50;99.90
30628;DHT22;17394;50.890;4.724;2023-05-10T06:16:36;12.50;99.90
30628;DHT22;17394;50.890;4.724;2023-05-10T06:19:02;12.50;99.90
30628;DHT22;17394;50.890;4.724;2023-05-10T06:21:29;12.60;99.90
30628;DHT22;17394;50.890;4.724;2023-05-10T06:23:55;12.50;99.90
30628;DHT22;17394;50.890;4.724;2023-05-10T06:26:21;12.50;99.90
30628;DHT22;17394;50.890;4.724;2023-05-10T06:28:47;12.50;99.90
30628;DHT22;17394;50.890;4.724;2023-05-10T06:31:14;12.60;99.90
30628;DHT22;17394;50.890;4.724;2023-05-10T06:33:40;12.50;99.90
30628;DHT22;17394;50.890;4.724;2023-05-10T06:36:07;12.60;99.90
30628;DHT22;17394;50.890;4.724;2023-05-10T06:38:33;12.60;99.90
30628;DHT22;17394;50.890;4.724;2023-05-10T06:40:59;12.70;99.90
30628;DHT22;17394;50.890;4.724;2023-05-10T06:43:25;12.80;99.90
30628;DHT22;17394;50.890;4.724;2023-05-10T06:45:51;12.80;99.90
30628;DHT22;17394;50.890;4.724;2023-05-10T06:48:18;12.90;99.90
30628;DHT22;17394;50.890;4.724;2023-05-10T06:50:45;12.90;99.90
30628;DHT22;17394;50.890;4.724;2023-05-10T06:53:11;13.00;99.90
30628;DHT22;17394;50.890;4.724;2023-05-10T06:55:38;13.10;99.90
30628;DHT22;17394;50.890;4.724;2023-05-10T06:58:05;13.20;99.90
30628;DHT22;17394;50.890;4.724;2023-05-10T07:00:31;13.20;99.90
30628;DHT22;17394;50.890;4.724;2023-05-10T07:02:58;13.30;99.90
30628;DHT22;17394;50.890;4.724;2023-05-10T07:05:24;13.40;99.90
30628;DHT22;17394;50.890;4.724;2023-05-10T07:07:53;13.40;99.90
30628;DHT22;17394;50.890;4.724;2023-05-10T07:10:19;13.40;99.90
30628;DHT22;17394;50.890;4.724;2023-05-10T07:12:46;13.40;99.90
30628;DHT22;17394;50.890;4.724;2023-05-10T07:15:12;13.40;99.90
30628;DHT22;17394;50.890;4.724;2023-05-10T07:17:39;13.40;99.90
30628;DHT22;17394;50.890;4.724;2023-05-10T07:20:07;13.50;99.90
30628;DHT22;17394;50.890;4.724;2023-05-10T07:22:33;13.50;99.90
30628;DHT22;17394;50.890;4.724;2023-05-10T07:24:59;13.60;99.90
30628;DHT22;17394;50.890;4.724;2023-05-10T07:27:26;13.70;99.90
30628;DHT22;17394;50.890;4.724;2023-05-10T07:29:52;13.60;99.90
30628;DHT22;17394;50.890;4.724;2023-05-10T07:32:18;13.40;99.90
30628;DHT22;17394;50.890;4.724;2023-05-10T07:34:45;13.40;99.90
30628;DHT22;17394;50.890;4.724;2023-05-10T07:37:11;13.30;99.90
30628;DHT22;17394;50.890;4.724;2023-05-10T07:39:38;13.30;99.90
30628;DHT22;17394;50.890;4.724;2023-05-10T07:42:04;13.40;99.90
30628;DHT22;17394;50.890;4.724;2023-05-10T07:44:31;13.30;99.90
30628;DHT22;17394;50.890;4.724;2023-05-10T07:46:58;13.30;99.90
30628;DHT22;17394;50.890;4.724;2023-05-10T07:49:25;13.20;99.90
30628;DHT22;17394;50.890;4.724;2023-05-10T07:51:51;13.10;99.90
30628;DHT22;17394;50.890;4.724;2023-05-10T07:54:17;13.10;99.90
30628;DHT22;17394;50.890;4.724;2023-05-10T07:56:43;13.00;99.90
30628;DHT22;17394;50.890;4.724;2023-05-10T07:59:16;13.00;99.90
30628;DHT22;17394;50.890;4.724;2023-05-10T08:01:43;12.90;99.90
30628;DHT22;17394;50.890;4.724;2023-05-10T08:04:09;12.70;99.90
30628;DHT22;17394;50.890;4.724;2023-05-10T08:06:35;12.60;99.90
30628;DHT22;17394;50.890;4.724;2023-05-10T08:09:02;12.60;99.90
30628;DHT22;17394;50.890;4.724;2023-05-10T08:11:29;12.60;99.90
30628;DHT22;17394;50.890;4.724;2023-05-10T08:13:55;12.60;99.90
30628;DHT22;17394;50.890;4.724;2023-05-10T08:16:21;12.70;99.90
30628;DHT22;17394;50.890;4.724;2023-05-10T08:18:49;12.70;99.90
30628;DHT22;17394;50.890;4.724;2023-05-10T08:21:16;12.60;99.90
30628;DHT22;17394;50.890;4.724;2023-05-10T08:23:44;12.50;99.90
30628;DHT22;17394;50.890;4.724;2023-05-10T08:26:11;12.50;99.90
30628;DHT22;17394;50.890;4.724;2023-05-10T08:28:37;12.60;99.90
30628;DHT22;17394;50.890;4.724;2023-05-10T08:31:04;12.70;99.90
30628;DHT22;17394;50.890;4.724;2023-05-10T08:33:31;12.70;99.90
30628;DHT22;17394;50.890;4.724;2023-05-10T08:35:59;12.70;99.90
30628;DHT22;17394;50.890;4.724;2023-05-10T08:38:27;12.70;99.90
30628;DHT22;17394;50.890;4.724;2023-05-10T08:40:54;12.70;99.90
30628;DHT22;17394;50.890;4.724;2023-05-10T08:43:28;12.70;99.90
30628;DHT22;17394;50.890;4.724;2023-05-10T08:45:59;12.80;99.90
30628;DHT22;17394;50.890;4.724;2023-05-10T08:48:26;12.80;99.90
30628;DHT22;17394;50.890;4.724;2023-05-10T08:50:54;12.80;99.90
30628;DHT22;17394;50.890;4.724;2023-05-10T08:53:24;12.90;99.90
30628;DHT22;17394;50.890;4.724;2023-05-10T08:55:53;12.90;99.90
30628;DHT22;17394;50.890;4.724;2023-05-10T08:58:20;12.90;99.90
30628;DHT22;17394;50.890;4.724;2023-05-10T09:00:49;12.90;99.90
30628;DHT22;17394;50.890;4.724;2023-05-10T09:03:18;12.90;99.90
30628;DHT22;17394;50.890;4.724;2023-05-10T09:05:44;12.80;99.90
30628;DHT22;17394;50.890;4.724;2023-05-10T09:08:11;12.70;99.90
30628;DHT22;17394;50.890;4.724;2023-05-10T09:10:38;12.70;99.90
30628;DHT22;17394;50.890;4.724;2023-05-10T09:13:05;12.70;99.90
30628;DHT22;17394;50.890;4.724;2023-05-10T09:15:34;12.70;99.90
30628;DHT22;17394;50.890;4.724;2023-05-10T09:18:00;12.80;99.90
30628;DHT22;17394;50.890;4.724;2023-05-10T09:20:27;12.80;99.90
30628;DHT22;17394;50.890;4.724;2023-05-10T09:22:55;12.90;99.90
30628;DHT22;17394;50.890;4.724;2023-05-10T09:25:21;12.90;99.90
30628;DHT22;17394;50.890;4.724;2023-05-10T09:27:48;13.00;99.90
30628;DHT22;17394;50.890;4.724;2023-05-10T09:30:24;13.10;99.90
30628;DHT22;17394;50.890;4.724;2023-05-10T09:32:50;13.20;99.90
30628;DHT22;17394;50.890;4.724;2023-05-10T09:35:18;13.30;99.90
30628;DHT22;17394;50.890;4.724;2023-05-10T09:37:45;13.30;99.90
30628;DHT22;17394;50.890;4.724;2023-05-10T09:40:14;13.30;99.90
30628;DHT22;17394;50.890;4.724;2023-05-10T09:43:02;13.30;99.90
30628;DHT22;17394;50.890;4.724;2023-05-10T09:45:28;13.30;99.90
30628;DHT22;17394;50.890;4.724;2023-05-10T09:47:55;13.30;99.90
30628;DHT22;17394;50.890;4.724;2023-05-10T09:50:21;13.30;99.90
30628;DHT22;17394;50.890;4.724;2023-05-10T09:52:49;13.40;99.90
30628;DHT22;17394;50.890;4.724;2023-05-10T09:55:17;13.60;99.90
30628;DHT22;17394;50.890;4.724;2023-05-10T09:57:44;13.70;99.90
30628;DHT22;17394;50.890;4.724;2023-05-10T10:00:10;13.70;99.90
30628;DHT22;17394;50.890;4.724;2023-05-10T10:02:42;13.70;99.90
30628;DHT22;17394;50.890;4.724;2023-05-10T10:05:09;13.70;99.90
30628;DHT22;17394;50.890;4.724;2023-05-10T10:07:37;13.70;99.90
30628;DHT22;17394;50.890;4.724;2023-05-10T10:10:05;13.70;99.90
30628;DHT22;17394;50.890;4.724;2023-05-10T10:12:37;13.80;99.90
30628;DHT22;17394;50.890;4.724;2023-05-10T10:15:03;13.90;99.90
30628;DHT22;17394;50.890;4.724;2023-05-10T10:17:32;14.00;99.90
30628;DHT22;17394;50.890;4.724;2023-05-10T10:19:58;14.00;99.90
30628;DHT22;17394;50.890;4.724;2023-05-10T10:22:25;13.90;99.90
30628;DHT22;17394;50.890;4.724;2023-05-10T10:24:51;13.90;99.90
30628;DHT22;17394;50.890;4.724;2023-05-10T10:35:09;14.10;99.90
30628;DHT22;17394;50.890;4.724;2023-05-10T10:37:45;14.10;99.90
30628;DHT22;17394;50.890;4.724;2023-05-10T10:42:51;14.10;99.90
30628;DHT22;17394;50.890;4.724;2023-05-10T10:45:17;14.20;99.90
30628;DHT22;17394;50.890;4.724;2023-05-10T10:47:44;14.20;99.90
30628;DHT22;17394;50.890;4.724;2023-05-10T10:50:10;14.30;99.90
30628;DHT22;17394;50.890;4.724;2023-05-10T10:52:44;14.50;99.90
30628;DHT22;17394;50.890;4.724;2023-05-10T10:55:19;14.60;99.90
30628;DHT22;17394;50.890;4.724;2023-05-10T10:57:49;14.70;99.90
30628;DHT22;17394;50.890;4.724;2023-05-10T11:00:20;14.70;99.90
30628;DHT22;17394;50.890;4.724;2023-05-10T11:05:27;15.20;99.90
30628;DHT22;17394;50.890;4.724;2023-05-10T11:08:09;15.30;99.90
30628;DHT22;17394;50.890;4.724;2023-05-10T11:10:35;15.30;99.90
30628;DHT22;17394;50.890;4.724;2023-05-10T11:13:08;15.40;99.90
30628;DHT22;17394;50.890;4.724;2023-05-10T11:15:40;15.60;99.90
30628;DHT22;17394;50.890;4.724;2023-05-10T11:18:20;15.80;99.90
30628;DHT22;17394;50.890;4.724;2023-05-10T11:20:58;16.00;99.90
30628;DHT22;17394;50.890;4.724;2023-05-10T11:23:32;16.00;99.90
30628;DHT22;17394;50.890;4.724;2023-05-10T11:25:59;16.20;99.90
30628;DHT22;17394;50.890;4.724;2023-05-10T11:28:28;16.50;99.90
30628;DHT22;17394;50.890;4.724;2023-05-10T11:30:54;16.60;99.90
30628;DHT22;17394;50.890;4.724;2023-05-10T11:33:27;16.80;99.90
30628;DHT22;17394;50.890;4.724;2023-05-10T11:35:54;17.00;99.90
30628;DHT22;17394;50.890;4.724;2023-05-10T11:38:21;17.00;99.90
30628;DHT22;17394;50.890;4.724;2023-05-10T11:40:47;17.20;99.90
30628;DHT22;17394;50.890;4.724;2023-05-10T11:43:17;17.00;99.90
30628;DHT22;17394;50.890;4.724;2023-05-10T11:45:43;17.00;99.90
30628;DHT22;17394;50.890;4.724;2023-05-10T11:48:11;16.80;99.90
30628;DHT22;17394;50.890;4.724;2023-05-10T11:50:37;16.80;99.90
30628;DHT22;17394;50.890;4.724;2023-05-10T11:53:04;16.80;99.90
30628;DHT22;17394;50.890;4.724;2023-05-10T11:55:33;16.90;99.90
30628;DHT22;17394;50.890;4.724;2023-05-10T11:57:59;17.00;99.90
30628;DHT22;17394;50.890;4.724;2023-05-10T12:00:26;17.00;99.90
30628;DHT22;17394;50.890;4.724;2023-05-10T12:02:52;17.00;99.90
30628;DHT22;17394;50.890;4.724;2023-05-10T12:05:18;16.80;99.90
30628;DHT22;17394;50.890;4.724;2023-05-10T12:07:45;16.50;99.90
30628;DHT22;17394;50.890;4.724;2023-05-10T12:10:12;16.60;99.90
30628;DHT22;17394;50.890;4.724;2023-05-10T12:12:42;16.60;99.90
30628;DHT22;17394;50.890;4.724;2023-05-10T12:15:13;16.60;99.90
30628;DHT22;17394;50.890;4.724;2023-05-10T12:17:43;16.50;99.90
30628;DHT22;17394;50.890;4.724;2023-05-10T12:20:18;16.60;99.90
30628;DHT22;17394;50.890;4.724;2023-05-10T12:22:45;16.50;99.90
30628;DHT22;17394;50.890;4.724;2023-05-10T12:25:12;16.60;99.90
30628;DHT22;17394;50.890;4.724;2023-05-10T12:27:39;16.70;99.90
30628;DHT22;17394;50.890;4.724;2023-05-10T12:30:05;16.70;99.90
30628;DHT22;17394;50.890;4.724;2023-05-10T12:32:38;16.80;99.90
30628;DHT22;17394;50.890;4.724;2023-05-10T12:35:06;16.80;99.90
30628;DHT22;17394;50.890;4.724;2023-05-10T12:37:34;16.90;99.90
30628;DHT22;17394;50.890;4.724;2023-05-10T12:40:08;16.70;99.90
30628;DHT22;17394;50.890;4.724;2023-05-10T12:42:35;16.70;99.90
30628;DHT22;17394;50.890;4.724;2023-05-10T12:45:02;16.70;99.90
30628;DHT22;17394;50.890;4.724;2023-05-10T12:47:29;16.70;99.90
30628;DHT22;17394;50.890;4.724;2023-05-10T12:49:55;16.60;99.90
30628;DHT22;17394;50.890;4.724;2023-05-10T12:52:28;16.70;99.90
30628;DHT22;17394;50.890;4.724;2023-05-10T12:54:55;16.70;99.90
30628;DHT22;17394;50.890;4.724;2023-05-10T12:57:21;16.80;99.90
30628;DHT22;17394;50.890;4.724;2023-05-10T12:59:47;16.90;99.90
30628;DHT22;17394;50.890;4.724;2023-05-10T13:02:14;16.90;99.90
30628;DHT22;17394;50.890;4.724;2023-05-10T13:04:42;16.90;99.90
30628;DHT22;17394;50.890;4.724;2023-05-10T13:07:08;17.00;99.90
30628;DHT22;17394;50.890;4.724;2023-05-10T13:09:34;17.00;99.90
30628;DHT22;17394;50.890;4.724;2023-05-10T13:12:01;17.10;99.90
30628;DHT22;17394;50.890;4.724;2023-05-10T13:14:27;17.20;99.90
30628;DHT22;17394;50.890;4.724;2023-05-10T13:16:53;17.20;99.90
30628;DHT22;17394;50.890;4.724;2023-05-10T13:19:20;17.30;99.90
30628;DHT22;17394;50.890;4.724;2023-05-10T13:21:46;17.30;99.90
30628;DHT22;17394;50.890;4.724;2023-05-10T13:24:13;17.30;99.90
30628;DHT22;17394;50.890;4.724;2023-05-10T13:26:39;17.20;99.90
30628;DHT22;17394;50.890;4.724;2023-05-10T13:29:06;17.10;99.90
30628;DHT22;17394;50.890;4.724;2023-05-10T13:31:32;17.00;99.90
30628;DHT22;17394;50.890;4.724;2023-05-10T13:33:58;16.80;99.90
30628;DHT22;17394;50.890;4.724;2023-05-10T13:36:25;16.70;99.90
30628;DHT22;17394;50.890;4.724;2023-05-10T13:38:51;16.70;99.90
30628;DHT22;17394;50.890;4.724;2023-05-10T13:41:17;16.80;99.90
30628;DHT22;17394;50.890;4.724;2023-05-10T13:43:44;16.80;99.90
30628;DHT22;17394;50.890;4.724;2023-05-10T13:46:13;16.80;99.90
30628;DHT22;17394;50.890;4.724;2023-05-10T13:48:39;16.80;99.90
30628;DHT22;17394;50.890;4.724;2023-05-10T13:51:06;16.90;99.90
30628;DHT22;17394;50.890;4.724;2023-05-10T13:53:35;17.00;99.90
30628;DHT22;17394;50.890;4.724;2023-05-10T13:56:02;17.10;99.90
30628;DHT22;17394;50.890;4.724;2023-05-10T13:58:29;17.10;99.90
30628;DHT22;17394;50.890;4.724;2023-05-10T14:00:56;17.00;99.90
30628;DHT22;17394;50.890;4.724;2023-05-10T14:03:23;17.00;99.90
30628;DHT22;17394;50.890;4.724;2023-05-10T14:05:50;17.00;99.90
30628;DHT22;17394;50.890;4.724;2023-05-10T14:08:17;17.00;99.90
30628;DHT22;17394;50.890;4.724;2023-05-10T14:10:43;17.20;99.90
30628;DHT22;17394;50.890;4.724;2023-05-10T14:13:10;16.90;99.90
30628;DHT22;17394;50.890;4.724;2023-05-10T14:15:36;16.90;99.90
30628;DHT22;17394;50.890;4.724;2023-05-10T14:18:03;17.00;99.90
30628;DHT22;17394;50.890;4.724;2023-05-10T14:20:30;17.00;99.90
30628;DHT22;17394;50.890;4.724;2023-05-10T14:22:57;17.10;99.90
30628;DHT22;17394;50.890;4.724;2023-05-10T14:25:25;17.30;99.90
30628;DHT22;17394;50.890;4.724;2023-05-10T14:27:51;17.30;99.90
30628;DHT22;17394;50.890;4.724;2023-05-10T14:30:20;17.40;99.90
30628;DHT22;17394;50.890;4.724;2023-05-10T14:32:46;17.50;99.90
30628;DHT22;17394;50.890;4.724;2023-05-10T14:35:15;17.60;99.90
30628;DHT22;17394;50.890;4.724;2023-05-10T14:37:42;17.70;99.90
30628;DHT22;17394;50.890;4.724;2023-05-10T14:40:08;17.80;99.90
30628;DHT22;17394;50.890;4.724;2023-05-10T14:42:36;17.70;99.90
30628;DHT22;17394;50.890;4.724;2023-05-10T14:45:02;17.70;99.90
30628;DHT22;17394;50.890;4.724;2023-05-10T14:47:28;17.80;99.90
30628;DHT22;17394;50.890;4.724;2023-05-10T14:49:55;17.70;99.90
30628;DHT22;17394;50.890;4.724;2023-05-10T14:52:22;17.60;99.90
30628;DHT22;17394;50.890;4.724;2023-05-10T14:54:49;17.50;99.90
30628;DHT22;17394;50.890;4.724;2023-05-10T14:57:16;17.50;99.90
30628;DHT22;17394;50.890;4.724;2023-05-10T14:59:42;17.40;99.90
30628;DHT22;17394;50.890;4.724;2023-05-10T15:02:08;17.30;99.90
30628;DHT22;17394;50.890;4.724;2023-05-10T15:04:35;17.20;99.90
30628;DHT22;17394;50.890;4.724;2023-05-10T15:07:02;17.20;99.90
30628;DHT22;17394;50.890;4.724;2023-05-10T15:09:28;17.20;99.90
30628;DHT22;17394;50.890;4.724;2023-05-10T15:11:55;17.00;99.90
30628;DHT22;17394;50.890;4.724;2023-05-10T15:14:21;17.00;99.90
30628;DHT22;17394;50.890;4.724;2023-05-10T15:16:48;17.00;99.90
30628;DHT22;17394;50.890;4.724;2023-05-10T15:19:14;16.90;99.90
30628;DHT22;17394;50.890;4.724;2023-05-10T15:21:40;16.90;99.90
30628;DHT22;17394;50.890;4.724;2023-05-10T15:24:09;16.90;99.90
30628;DHT22;17394;50.890;4.724;2023-05-10T15:26:35;17.00;99.90
30628;DHT22;17394;50.890;4.724;2023-05-10T15:29:01;16.90;99.90
30628;DHT22;17394;50.890;4.724;2023-05-10T15:31:28;16.80;99.90
30628;DHT22;17394;50.890;4.724;2023-05-10T15:33:57;16.80;99.90
30628;DHT22;17394;50.890;4.724;2023-05-10T15:36:26;16.90;99.90
30628;DHT22;17394;50.890;4.724;2023-05-10T15:38:53;16.80;99.90
30628;DHT22;17394;50.890;4.724;2023-05-10T15:41:20;16.90;99.90
30628;DHT22;17394;50.890;4.724;2023-05-10T15:43:46;17.10;99.90
30628;DHT22;17394;50.890;4.724;2023-05-10T15:46:12;17.10;99.90
30628;DHT22;17394;50.890;4.724;2023-05-10T15:48:38;17.10;99.90
30628;DHT22;17394;50.890;4.724;2023-05-10T15:51:04;16.90;99.90
30628;DHT22;17394;50.890;4.724;2023-05-10T15:53:31;16.70;99.90
30628;DHT22;17394;50.890;4.724;2023-05-10T15:55:57;16.50;99.90
30628;DHT22;17394;50.890;4.724;2023-05-10T15:58:23;16.30;99.90